sensor_id;sensor_type;location;lat;lon;timestamp;pressure;altitude;pressure_sealevel;temperature;humidity
72570;BME280;60594;50.204;8.844;2023-03-13T00:00:54;99294.34;;;9.35;81.36
72570;BME280;60594;50.204;8.844;2023-03-13T00:03:21;99287.63;;;9.41;81.39
72570;BME280;60594;50.204;8.844;2023-03-13T00:05:48;99275.06;;;9.43;81.28
72570;BME280;60594;50.204;8.844;2023-03-13T00:08:14;99291.16;;;9.51;80.89
72570;BME280;60594;50.204;8.844;2023-03-13T00:10:41;99297.28;;;9.51;80.63
72570;BME280;60594;50.204;8.844;2023-03-13T00:13:08;99284.00;;;9.51;80.96
72570;BME280;60594;50.204;8.844;2023-03-13T00:15:35;99282.31;;;9.50;80.92
72570;BME280;60594;50.204;8.844;2023-03-13T00:18:01;99285.56;;;9.54;80.59
72570;BME280;60594;50.204;8.844;2023-03-13T00:20:28;99271.97;;;9.57;80.79
72570;BME280;60594;50.204;8.844;2023-03-13T00:22:54;99268.63;;;9.55;80.74
72570;BME280;60594;50.204;8.844;2023-03-13T00:25:21;99270.03;;;9.59;80.38
72570;BME280;60594;50.204;8.844;2023-03-13T00:27:47;99267.50;;;9.57;80.52
72570;BME280;60594;50.204;8.844;2023-03-13T00:30:14;99261.63;;;9.54;80.96
72570;BME280;60594;50.204;8.844;2023-03-13T00:32:41;99256.84;;;9.57;80.61
72570;BME280;60594;50.204;8.844;2023-03-13T00:35:09;99262.31;;;9.56;80.39
72570;BME280;60594;50.204;8.844;2023-03-13T00:37:35;99257.72;;;9.58;80.61
72570;BME280;60594;50.204;8.844;2023-03-13T00:40:03;99264.28;;;9.63;80.23
72570;BME280;60594;50.204;8.844;2023-03-13T00:42:30;99254.06;;;9.59;80.46
72570;BME280;60594;50.204;8.844;2023-03-13T00:44:57;99242.03;;;9.55;80.75
72570;BME280;60594;50.204;8.844;2023-03-13T00:47:23;99245.94;;;9.51;80.81
72570;BME280;60594;50.204;8.844;2023-03-13T00:49:50;99237.69;;;9.54;80.98
72570;BME280;60594;50.204;8.844;2023-03-13T00:52:16;99240.63;;;9.60;80.71
72570;BME280;60594;50.204;8.844;2023-03-13T00:54:43;99229.53;;;9.55;80.87
72570;BME280;60594;50.204;8.844;2023-03-13T00:57:09;99228.16;;;9.61;80.12
72570;BME280;60594;50.204;8.844;2023-03-13T00:59:36;99223.28;;;9.56;80.43
72570;BME280;60594;50.204;8.844;2023-03-13T01:02:02;99218.34;;;9.61;79.99
72570;BME280;60594;50.204;8.844;2023-03-13T01:04:29;99221.00;;;9.61;80.47
72570;BME280;60594;50.204;8.844;2023-03-13T01:06:56;99215.44;;;9.55;80.67
72570;BME280;60594;50.204;8.844;2023-03-13T01:09:23;99210.66;;;9.58;80.59
72570;BME280;60594;50.204;8.844;2023-03-13T01:11:50;99209.53;;;9.51;81.05
72570;BME280;60594;50.204;8.844;2023-03-13T01:14:18;99204.06;;;9.53;80.64
72570;BME280;60594;50.204;8.844;2023-03-13T01:16:45;99197.63;;;9.55;80.25
72570;BME280;60594;50.204;8.844;2023-03-13T01:19:14;99192.75;;;9.60;80.01
72570;BME280;60594;50.204;8.844;2023-03-13T01:21:42;99204.06;;;9.72;80.02
72570;BME280;60594;50.204;8.844;2023-03-13T01:24:09;99204.66;;;9.56;80.60
72570;BME280;60594;50.204;8.844;2023-03-13T01:26:36;99192.88;;;9.59;80.57
72570;BME280;60594;50.204;8.844;2023-03-13T01:29:03;99190.75;;;9.62;80.41
72570;BME280;60594;50.204;8.844;2023-03-13T01:31:34;99179.16;;;9.63;80.64
72570;BME280;60594;50.204;8.844;2023-03-13T01:34:03;99170.06;;;9.66;80.00
72570;BME280;60594;50.204;8.844;2023-03-13T01:36:31;99175.38;;;9.66;80.22
72570;BME280;60594;50.204;8.844;2023-03-13T01:38:59;99159.97;;;9.69;79.80
72570;BME280;60594;50.204;8.844;2023-03-13T01:41:27;99150.03;;;9.71;80.00
72570;BME280;60594;50.204;8.844;2023-03-13T01:43:54;99144.44;;;9.65;80.50
72570;BME280;60594;50.204;8.844;2023-03-13T01:46:26;99143.59;;;9.64;80.29
72570;BME280;60594;50.204;8.844;2023-03-13T01:49:10;99131.16;;;9.65;80.75
72570;BME280;60594;50.204;8.844;2023-03-13T01:51:54;99139.28;;;9.63;80.53
72570;BME280;60594;50.204;8.844;2023-03-13T01:54:36;99136.75;;;9.62;80.77
72570;BME280;60594;50.204;8.844;2023-03-13T01:57:12;99128.31;;;9.66;81.08
72570;BME280;60594;50.204;8.844;2023-03-13T01:59:58;99122.47;;;9.63;80.36
72570;BME280;60594;50.204;8.844;2023-03-13T02:02:26;99115.72;;;9.68;81.03
72570;BME280;60594;50.204;8.844;2023-03-13T02:04:56;99111.53;;;9.66;80.86
72570;BME280;60594;50.204;8.844;2023-03-13T02:07:34;99112.06;;;9.69;80.63
72570;BME280;60594;50.204;8.844;2023-03-13T02:10:03;99109.13;;;9.72;80.49
72570;BME280;60594;50.204;8.844;2023-03-13T02:12:33;99100.88;;;9.75;80.71
72570;BME280;60594;50.204;8.844;2023-03-13T02:15:10;99104.47;;;9.84;80.64
72570;BME280;60594;50.204;8.844;2023-03-13T02:17:38;99091.03;;;9.85;81.09
72570;BME280;60594;50.204;8.844;2023-03-13T02:20:06;99087.09;;;9.89;81.53
72570;BME280;60594;50.204;8.844;2023-03-13T02:22:51;99092.03;;;9.75;83.32
72570;BME280;60594;50.204;8.844;2023-03-13T02:27:56;99085.78;;;9.57;87.06
72570;BME280;60594;50.204;8.844;2023-03-13T02:30:24;99085.81;;;9.47;88.04
72570;BME280;60594;50.204;8.844;2023-03-13T02:32:50;99081.47;;;9.46;89.24
72570;BME280;60594;50.204;8.844;2023-03-13T02:35:19;99087.22;;;9.32;90.73
72570;BME280;60594;50.204;8.844;2023-03-13T02:37:49;99082.66;;;9.25;92.69
72570;BME280;60594;50.204;8.844;2023-03-13T02:40:28;99076.78;;;9.02;95.64
72570;BME280;60594;50.204;8.844;2023-03-13T02:42:59;99069.81;;;8.92;98.03
72570;BME280;60594;50.204;8.844;2023-03-13T02:45:27;99063.63;;;8.82;99.09
72570;BME280;60594;50.204;8.844;2023-03-13T02:47:54;99053.56;;;8.76;100.00
72570;BME280;60594;50.204;8.844;2023-03-13T02:50:21;99046.03;;;8.71;100.00
72570;BME280;60594;50.204;8.844;2023-03-13T02:52:54;99029.25;;;8.71;100.00
72570;BME280;60594;50.204;8.844;2023-03-13T02:55:35;99038.47;;;8.67;100.00
72570;BME280;60594;50.204;8.844;2023-03-13T02:58:04;99046.44;;;8.67;100.00
72570;BME280;60594;50.204;8.844;2023-03-13T03:00:35;99033.56;;;8.62;100.00
72570;BME280;60594;50.204;8.844;2023-03-13T03:03:01;99028.13;;;8.64;100.00
72570;BME280;60594;50.204;8.844;2023-03-13T03:05:28;99016.94;;;8.60;100.00
72570;BME280;60594;50.204;8.844;2023-03-13T03:07:56;99015.25;;;8.59;100.00
72570;BME280;60594;50.204;8.844;2023-03-13T03:10:23;99009.81;;;8.61;100.00
72570;BME280;60594;50.204;8.844;2023-03-13T03:12:51;98999.19;;;8.61;100.00
72570;BME280;60594;50.204;8.844;2023-03-13T03:15:17;98995.28;;;8.65;100.00
72570;BME280;60594;50.204;8.844;2023-03-13T03:17:46;98995.97;;;8.67;100.00
72570;BME280;60594;50.204;8.844;2023-03-13T03:20:13;98988.00;;;8.67;100.00
72570;BME280;60594;50.204;8.844;2023-03-13T03:22:42;98971.81;;;8.70;100.00
72570;BME280;60594;50.204;8.844;2023-03-13T03:25:09;98967.88;;;8.74;100.00
72570;BME280;60594;50.204;8.844;2023-03-13T03:27:36;98978.09;;;8.78;100.00
72570;BME280;60594;50.204;8.844;2023-03-13T03:30:05;98970.38;;;8.85;100.00
72570;BME280;60594;50.204;8.844;2023-03-13T03:32:33;98980.03;;;8.86;100.00
72570;BME280;60594;50.204;8.844;2023-03-13T03:35:00;98980.03;;;8.86;100.00
72570;BME280;60594;50.204;8.844;2023-03-13T03:37:28;98979.03;;;8.87;100.00
72570;BME280;60594;50.204;8.844;2023-03-13T03:39:54;98972.06;;;8.86;100.00
72570;BME280;60594;50.204;8.844;2023-03-13T03:42:21;98974.28;;;8.90;100.00
72570;BME280;60594;50.204;8.844;2023-03-13T03:44:47;98978.63;;;8.91;100.00
72570;BME280;60594;50.204;8.844;2023-03-13T03:47:14;98969.41;;;8.86;100.00
72570;BME280;60594;50.204;8.844;2023-03-13T03:49:45;98968.56;;;8.95;100.00
72570;BME280;60594;50.204;8.844;2023-03-13T03:52:12;98969.41;;;8.86;100.00
72570;BME280;60594;50.204;8.844;2023-03-13T03:54:41;98971.38;;;8.84;100.00
72570;BME280;60594;50.204;8.844;2023-03-13T03:57:11;98969.00;;;8.81;100.00
72570;BME280;60594;50.204;8.844;2023-03-13T03:59:39;98959.91;;;8.74;100.00
72570;BME280;60594;50.204;8.844;2023-03-13T04:02:08;98956.41;;;8.73;100.00
72570;BME280;60594;50.204;8.844;2023-03-13T04:04:35;98956.69;;;8.70;100.00
72570;BME280;60594;50.204;8.844;2023-03-13T04:07:10;98954.19;;;8.69;100.00
72570;BME280;60594;50.204;8.844;2023-03-13T04:09:38;98954.47;;;8.66;100.00
72570;BME280;60594;50.204;8.844;2023-03-13T04:12:07;98951.22;;;8.72;100.00
72570;BME280;60594;50.204;8.844;2023-03-13T04:14:38;98950.81;;;8.76;100.00
72570;BME280;60594;50.204;8.844;2023-03-13T04:17:07;98963.13;;;8.68;100.00
72570;BME280;60594;50.204;8.844;2023-03-13T04:19:33;98945.38;;;8.68;100.00
72570;BME280;60594;50.204;8.844;2023-03-13T04:22:00;98941.88;;;8.68;100.00
72570;BME280;60594;50.204;8.844;2023-03-13T04:24:27;98938.25;;;8.69;100.00
72570;BME280;60594;50.204;8.844;2023-03-13T04:26:54;98937.41;;;8.68;100.00
72570;BME280;60594;50.204;8.844;2023-03-13T04:29:21;98939.09;;;8.69;100.00
72570;BME280;60594;50.204;8.844;2023-03-13T04:31:58;98921.47;;;8.68;100.00
72570;BME280;60594;50.204;8.844;2023-03-13T04:34:47;98918.81;;;8.68;100.00
72570;BME280;60594;50.204;8.844;2023-03-13T04:37:35;98925.66;;;8.71;100.00
72570;BME280;60594;50.204;8.844;2023-03-13T04:40:10;98923.56;;;8.65;100.00
72570;BME280;60594;50.204;8.844;2023-03-13T04:43:01;98917.28;;;8.66;100.00
72570;BME280;60594;50.204;8.844;2023-03-13T04:45:42;98923.84;;;8.71;100.00
72570;BME280;60594;50.204;8.844;2023-03-13T04:48:22;98922.59;;;8.66;100.00
72570;BME280;60594;50.204;8.844;2023-03-13T04:51:16;98924.13;;;8.68;100.00
72570;BME280;60594;50.204;8.844;2023-03-13T04:54:09;98915.88;;;8.71;100.00
72570;BME280;60594;50.204;8.844;2023-03-13T04:56:52;98913.38;;;8.70;100.00
72570;BME280;60594;50.204;8.844;2023-03-13T04:59:57;98900.22;;;8.68;100.00
72570;BME280;60594;50.204;8.844;2023-03-13T05:02:44;98887.50;;;8.72;100.00
72570;BME280;60594;50.204;8.844;2023-03-13T05:05:45;98901.75;;;8.71;100.00
72570;BME280;60594;50.204;8.844;2023-03-13T05:08:39;98898.25;;;8.70;100.00
72570;BME280;60594;50.204;8.844;2023-03-13T05:11:21;98895.19;;;8.75;100.00
72570;BME280;60594;50.204;8.844;2023-03-13T05:14:14;98897.69;;;8.76;100.00
72570;BME280;60594;50.204;8.844;2023-03-13T05:16:56;98889.19;;;8.73;100.00
72570;BME280;60594;50.204;8.844;2023-03-13T05:19:49;98879.38;;;8.73;100.00
72570;BME280;60594;50.204;8.844;2023-03-13T05:22:36;98874.50;;;8.78;100.00
72570;BME280;60594;50.204;8.844;2023-03-13T05:25:26;98862.13;;;8.87;100.00
72570;BME280;60594;50.204;8.844;2023-03-13T05:27:52;98853.50;;;8.85;100.00
72570;BME280;60594;50.204;8.844;2023-03-13T05:30:51;98848.81;;;8.96;100.00
72570;BME280;60594;50.204;8.844;2023-03-13T05:33:36;98840.56;;;8.99;100.00
72570;BME280;60594;50.204;8.844;2023-03-13T05:36:23;98850.22;;;9.00;100.00
72570;BME280;60594;50.204;8.844;2023-03-13T05:39:08;98832.31;;;9.02;100.00
72570;BME280;60594;50.204;8.844;2023-03-13T05:41:50;98826.84;;;9.04;100.00
72570;BME280;60594;50.204;8.844;2023-03-13T05:44:36;98821.91;;;9.09;100.00
72570;BME280;60594;50.204;8.844;2023-03-13T05:47:27;98839.50;;;9.19;100.00
72570;BME280;60594;50.204;8.844;2023-03-13T05:50:07;98850.00;;;9.21;100.00
72570;BME280;60594;50.204;8.844;2023-03-13T05:52:43;98853.19;;;9.24;100.00
72570;BME280;60594;50.204;8.844;2023-03-13T05:55:28;98862.38;;;9.30;100.00
72570;BME280;60594;50.204;8.844;2023-03-13T05:58:30;98863.03;;;9.41;100.00
72570;BME280;60594;50.204;8.844;2023-03-13T06:01:11;98845.09;;;9.43;100.00
72570;BME280;60594;50.204;8.844;2023-03-13T06:03:38;98843.16;;;9.45;100.00
72570;BME280;60594;50.204;8.844;2023-03-13T06:06:05;98826.47;;;9.43;100.00
72570;BME280;60594;50.204;8.844;2023-03-13T06:08:37;98817.38;;;9.46;100.00
72570;BME280;60594;50.204;8.844;2023-03-13T06:11:04;98810.94;;;9.48;100.00
72570;BME280;60594;50.204;8.844;2023-03-13T06:13:33;98815.94;;;9.51;100.00
72570;BME280;60594;50.204;8.844;2023-03-13T06:16:05;98798.31;;;9.50;100.00
72570;BME280;60594;50.204;8.844;2023-03-13T06:18:58;98798.69;;;9.55;100.00
72570;BME280;60594;50.204;8.844;2023-03-13T06:21:24;98810.72;;;9.59;100.00
72570;BME280;60594;50.204;8.844;2023-03-13T06:23:51;98817.25;;;9.65;100.00
72570;BME280;60594;50.204;8.844;2023-03-13T06:26:17;98805.69;;;9.74;100.00
72570;BME280;60594;50.204;8.844;2023-03-13T06:28:44;98803.25;;;9.80;100.00
72570;BME280;60594;50.204;8.844;2023-03-13T06:31:10;98801.97;;;9.84;100.00
72570;BME280;60594;50.204;8.844;2023-03-13T06:33:37;98808.00;;;9.86;100.00
72570;BME280;60594;50.204;8.844;2023-03-13T06:36:04;98804.47;;;9.86;100.00
72570;BME280;60594;50.204;8.844;2023-03-13T06:38:31;98803.34;;;9.88;100.00
72570;BME280;60594;50.204;8.844;2023-03-13T06:40:57;98804.31;;;9.87;100.00
72570;BME280;60594;50.204;8.844;2023-03-13T06:43:24;98810.06;;;9.92;100.00
72570;BME280;60594;50.204;8.844;2023-03-13T06:45:51;98802.59;;;9.96;100.00
72570;BME280;60594;50.204;8.844;2023-03-13T06:48:18;98811.22;;;10.07;100.00
72570;BME280;60594;50.204;8.844;2023-03-13T06:50:44;98801.97;;;10.02;100.00
72570;BME280;60594;50.204;8.844;2023-03-13T06:53:14;98805.88;;;10.07;100.00
72570;BME280;60594;50.204;8.844;2023-03-13T06:55:42;98818.56;;;10.13;100.00
72570;BME280;60594;50.204;8.844;2023-03-13T06:58:09;98798.25;;;10.12;100.00
72570;BME280;60594;50.204;8.844;2023-03-13T07:00:36;98794.66;;;10.21;100.00
72570;BME280;60594;50.204;8.844;2023-03-13T07:03:05;98780.75;;;10.27;100.00
72570;BME280;60594;50.204;8.844;2023-03-13T07:05:32;98769.09;;;10.28;100.00
72570;BME280;60594;50.204;8.844;2023-03-13T07:07:58;98770.13;;;10.35;100.00
72570;BME280;60594;50.204;8.844;2023-03-13T07:10:25;98754.19;;;10.43;100.00
72570;BME280;60594;50.204;8.844;2023-03-13T07:12:51;98772.94;;;10.52;100.00
72570;BME280;60594;50.204;8.844;2023-03-13T07:15:18;98772.44;;;10.56;100.00
72570;BME280;60594;50.204;8.844;2023-03-13T07:17:44;98774.31;;;10.64;100.00
72570;BME280;60594;50.204;8.844;2023-03-13T07:20:11;98776.66;;;10.67;100.00
72570;BME280;60594;50.204;8.844;2023-03-13T07:22:38;98778.84;;;10.71;100.00
72570;BME280;60594;50.204;8.844;2023-03-13T07:25:05;98780.53;;;10.72;100.00
72570;BME280;60594;50.204;8.844;2023-03-13T07:27:32;98800.31;;;10.70;100.00
72570;BME280;60594;50.204;8.844;2023-03-13T07:29:58;98805.38;;;10.81;100.00
72570;BME280;60594;50.204;8.844;2023-03-13T07:32:25;98784.56;;;10.76;100.00
72570;BME280;60594;50.204;8.844;2023-03-13T07:34:56;98791.72;;;10.84;100.00
72570;BME280;60594;50.204;8.844;2023-03-13T07:37:25;98806.56;;;10.86;100.00
72570;BME280;60594;50.204;8.844;2023-03-13T07:39:51;98801.94;;;10.88;100.00
72570;BME280;60594;50.204;8.844;2023-03-13T07:42:18;98802.94;;;10.87;100.00
72570;BME280;60594;50.204;8.844;2023-03-13T07:44:45;98810.25;;;10.93;100.00
72570;BME280;60594;50.204;8.844;2023-03-13T07:47:12;98801.16;;;10.96;100.00
72570;BME280;60594;50.204;8.844;2023-03-13T07:49:38;98802.97;;;10.95;100.00
72570;BME280;60594;50.204;8.844;2023-03-13T07:52:09;98814.13;;;10.99;100.00
72570;BME280;60594;50.204;8.844;2023-03-13T07:54:35;98802.50;;;11.00;100.00
72570;BME280;60594;50.204;8.844;2023-03-13T07:57:02;98812.16;;;11.01;100.00
72570;BME280;60594;50.204;8.844;2023-03-13T07:59:29;98810.84;;;11.05;100.00
72570;BME280;60594;50.204;8.844;2023-03-13T08:01:55;98817.34;;;11.10;100.00
72570;BME280;60594;50.204;8.844;2023-03-13T08:04:22;98817.19;;;11.12;100.00
72570;BME280;60594;50.204;8.844;2023-03-13T08:06:48;98806.69;;;11.10;100.00
72570;BME280;60594;50.204;8.844;2023-03-13T08:09:16;98814.53;;;11.12;100.00
72570;BME280;60594;50.204;8.844;2023-03-13T08:11:43;98823.69;;;11.09;100.00
72570;BME280;60594;50.204;8.844;2023-03-13T08:14:09;98813.84;;;11.10;100.00
72570;BME280;60594;50.204;8.844;2023-03-13T08:16:36;98825.84;;;11.14;100.00
72570;BME280;60594;50.204;8.844;2023-03-13T08:19:03;98821.06;;;11.17;100.00
72570;BME280;60594;50.204;8.844;2023-03-13T08:21:33;98827.94;;;11.28;100.00
72570;BME280;60594;50.204;8.844;2023-03-13T08:24:02;98825.78;;;11.31;100.00
72570;BME280;60594;50.204;8.844;2023-03-13T08:26:33;98822.28;;;11.31;100.00
72570;BME280;60594;50.204;8.844;2023-03-13T08:29:02;98829.66;;;11.37;100.00
72570;BME280;60594;50.204;8.844;2023-03-13T08:31:31;98821.50;;;11.46;100.00
72570;BME280;60594;50.204;8.844;2023-03-13T08:33:58;98831.00;;;11.49;100.00
72570;BME280;60594;50.204;8.844;2023-03-13T08:36:28;98811.66;;;11.47;100.00
72570;BME280;60594;50.204;8.844;2023-03-13T08:38:58;98828.84;;;11.52;100.00
72570;BME280;60594;50.204;8.844;2023-03-13T08:41:27;98818.06;;;11.62;100.00
72570;BME280;60594;50.204;8.844;2023-03-13T08:43:55;98818.22;;;11.60;100.00
72570;BME280;60594;50.204;8.844;2023-03-13T08:46:22;98818.59;;;11.65;100.00
72570;BME280;60594;50.204;8.844;2023-03-13T08:48:50;98826.59;;;11.65;100.00
72570;BME280;60594;50.204;8.844;2023-03-13T08:51:18;98806.25;;;11.72;100.00
72570;BME280;60594;50.204;8.844;2023-03-13T08:53:45;98813.44;;;11.80;100.00
72570;BME280;60594;50.204;8.844;2023-03-13T08:56:13;98809.78;;;11.81;100.00
72570;BME280;60594;50.204;8.844;2023-03-13T08:58:40;98810.44;;;11.83;100.00
72570;BME280;60594;50.204;8.844;2023-03-13T09:01:12;98822.81;;;11.92;100.00
72570;BME280;60594;50.204;8.844;2023-03-13T09:03:40;98820.31;;;11.98;99.63
72570;BME280;60594;50.204;8.844;2023-03-13T09:06:08;98820.31;;;11.98;99.88
72570;BME280;60594;50.204;8.844;2023-03-13T09:08:36;98824.63;;;11.99;100.00
72570;BME280;60594;50.204;8.844;2023-03-13T09:11:05;98820.47;;;11.97;100.00
72570;BME280;60594;50.204;8.844;2023-03-13T09:13:34;98827.66;;;12.12;100.00
72570;BME280;60594;50.204;8.844;2023-03-13T09:16:04;98823.81;;;12.23;99.37
72570;BME280;60594;50.204;8.844;2023-03-13T09:18:32;98800.94;;;12.28;98.61
72570;BME280;60594;50.204;8.844;2023-03-13T09:20:59;98790.25;;;12.36;98.77
72570;BME280;60594;50.204;8.844;2023-03-13T09:23:26;98793.91;;;12.43;97.50
72570;BME280;60594;50.204;8.844;2023-03-13T09:25:55;98787.41;;;12.46;97.25
72570;BME280;60594;50.204;8.844;2023-03-13T09:28:23;98784.88;;;12.52;96.26
72570;BME280;60594;50.204;8.844;2023-03-13T09:30:51;98789.56;;;12.58;97.12
72570;BME280;60594;50.204;8.844;2023-03-13T09:33:19;98793.88;;;12.59;96.45
72570;BME280;60594;50.204;8.844;2023-03-13T09:35:45;98782.53;;;12.57;97.44
72570;BME280;60594;50.204;8.844;2023-03-13T09:38:20;98780.69;;;12.58;96.56
72570;BME280;60594;50.204;8.844;2023-03-13T09:40:49;98778.69;;;12.60;96.31
72570;BME280;60594;50.204;8.844;2023-03-13T09:46:10;98770.81;;;12.66;97.04
72570;BME280;60594;50.204;8.844;2023-03-13T09:48:42;98768.31;;;12.65;95.93
72570;BME280;60594;50.204;8.844;2023-03-13T09:51:17;98759.44;;;12.72;95.31
72570;BME280;60594;50.204;8.844;2023-03-13T09:54:02;98751.91;;;12.76;94.95
72570;BME280;60594;50.204;8.844;2023-03-13T09:56:44;98743.22;;;12.82;94.48
72570;BME280;60594;50.204;8.844;2023-03-13T09:59:17;98739.31;;;12.92;93.61
72570;BME280;60594;50.204;8.844;2023-03-13T10:01:46;98741.47;;;12.97;94.26
72570;BME280;60594;50.204;8.844;2023-03-13T10:04:29;98749.03;;;13.01;94.98
72570;BME280;60594;50.204;8.844;2023-03-13T10:06:57;98753.19;;;13.04;93.54
72570;BME280;60594;50.204;8.844;2023-03-13T10:09:31;98760.53;;;13.02;93.21
72570;BME280;60594;50.204;8.844;2023-03-13T10:14:27;98773.91;;;13.02;92.87
72570;BME280;60594;50.204;8.844;2023-03-13T10:17:06;98769.06;;;12.97;92.79
72570;BME280;60594;50.204;8.844;2023-03-13T10:19:39;98783.97;;;12.92;93.00
72570;BME280;60594;50.204;8.844;2023-03-13T10:22:14;98765.25;;;12.92;91.97
72570;BME280;60594;50.204;8.844;2023-03-13T10:24:49;98770.06;;;12.96;92.25
72570;BME280;60594;50.204;8.844;2023-03-13T10:27:17;98771.44;;;13.00;92.12
72570;BME280;60594;50.204;8.844;2023-03-13T10:29:44;98769.53;;;13.09;92.29
72570;BME280;60594;50.204;8.844;2023-03-13T10:32:15;98753.16;;;13.12;91.97
72570;BME280;60594;50.204;8.844;2023-03-13T10:34:56;98756.16;;;13.17;91.17
72570;BME280;60594;50.204;8.844;2023-03-13T10:37:32;98766.13;;;13.23;91.41
72570;BME280;60594;50.204;8.844;2023-03-13T10:40:18;98759.25;;;13.28;91.58
72570;BME280;60594;50.204;8.844;2023-03-13T10:42:46;98750.88;;;13.31;91.24
72570;BME280;60594;50.204;8.844;2023-03-13T10:45:20;98764.25;;;13.31;91.23
72570;BME280;60594;50.204;8.844;2023-03-13T10:47:56;98752.38;;;13.34;91.20
72570;BME280;60594;50.204;8.844;2023-03-13T10:50:24;98773.72;;;13.42;90.84
72570;BME280;60594;50.204;8.844;2023-03-13T10:52:57;98746.16;;;13.41;90.09
72570;BME280;60594;50.204;8.844;2023-03-13T10:55:34;98747.47;;;13.45;90.67
72570;BME280;60594;50.204;8.844;2023-03-13T11:01:15;98739.44;;;13.45;91.06
72570;BME280;60594;50.204;8.844;2023-03-13T11:03:43;98742.50;;;13.57;90.39
72570;BME280;60594;50.204;8.844;2023-03-13T11:06:23;98735.22;;;13.73;89.58
72570;BME280;60594;50.204;8.844;2023-03-13T11:08:58;98741.34;;;13.82;88.65
72570;BME280;60594;50.204;8.844;2023-03-13T11:11:28;98739.44;;;13.91;88.43
72570;BME280;60594;50.204;8.844;2023-03-13T11:14:08;98726.41;;;13.88;87.71
72570;BME280;60594;50.204;8.844;2023-03-13T11:16:44;98723.19;;;13.92;88.06
72570;BME280;60594;50.204;8.844;2023-03-13T11:19:23;98722.06;;;13.87;87.87
72570;BME280;60594;50.204;8.844;2023-03-13T11:24:54;98711.34;;;13.87;88.78
72570;BME280;60594;50.204;8.844;2023-03-13T11:30:59;98711.44;;;13.79;89.16
72570;BME280;60594;50.204;8.844;2023-03-13T11:33:47;98716.28;;;13.75;88.52
72570;BME280;60594;50.204;8.844;2023-03-13T11:42:00;98698.13;;;13.85;87.50
72570;BME280;60594;50.204;8.844;2023-03-13T11:45:00;98692.59;;;13.87;87.42
72570;BME280;60594;50.204;8.844;2023-03-13T11:47:39;98696.22;;;13.94;86.15
72570;BME280;60594;50.204;8.844;2023-03-13T11:52:57;98676.72;;;14.00;85.51
72570;BME280;60594;50.204;8.844;2023-03-13T11:56:01;98677.31;;;14.10;83.95
72570;BME280;60594;50.204;8.844;2023-03-13T11:58:59;98658.91;;;14.29;83.01
72570;BME280;60594;50.204;8.844;2023-03-13T12:01:42;98654.38;;;14.44;83.69
72570;BME280;60594;50.204;8.844;2023-03-13T12:04:36;98658.16;;;14.50;82.45
72570;BME280;60594;50.204;8.844;2023-03-13T12:07:34;98647.91;;;14.39;81.73
72570;BME280;60594;50.204;8.844;2023-03-13T12:10:14;98636.63;;;14.29;82.49
72570;BME280;60594;50.204;8.844;2023-03-13T12:15:35;98615.97;;;14.73;80.86
72570;BME280;60594;50.204;8.844;2023-03-13T12:18:19;98618.41;;;15.03;79.71
72570;BME280;60594;50.204;8.844;2023-03-13T12:21:02;98605.94;;;14.96;79.58
72570;BME280;60594;50.204;8.844;2023-03-13T12:23:42;98604.50;;;14.79;80.64
72570;BME280;60594;50.204;8.844;2023-03-13T12:26:17;98608.13;;;14.71;81.66
72570;BME280;60594;50.204;8.844;2023-03-13T12:29:16;98607.78;;;14.60;80.74
72570;BME280;60594;50.204;8.844;2023-03-13T12:31:56;98588.28;;;14.51;81.99
72570;BME280;60594;50.204;8.844;2023-03-13T12:40:20;98583.09;;;14.50;81.58
72570;BME280;60594;50.204;8.844;2023-03-13T12:43:03;98587.47;;;14.36;83.67
72570;BME280;60594;50.204;8.844;2023-03-13T12:45:31;98575.78;;;14.44;82.84
72570;BME280;60594;50.204;8.844;2023-03-13T13:02:14;98546.72;;;14.26;85.88
72570;BME280;60594;50.204;8.844;2023-03-13T13:04:45;98548.09;;;14.22;87.02
72570;BME280;60594;50.204;8.844;2023-03-13T13:07:23;98544.22;;;14.10;87.61
72570;BME280;60594;50.204;8.844;2023-03-13T13:12:42;98525.56;;;14.02;88.30
72570;BME280;60594;50.204;8.844;2023-03-13T13:15:19;98505.41;;;14.06;88.53
72570;BME280;60594;50.204;8.844;2023-03-13T13:17:59;98512.59;;;14.20;88.68
72570;BME280;60594;50.204;8.844;2023-03-13T13:23:23;98502.06;;;14.04;90.06
72570;BME280;60594;50.204;8.844;2023-03-13T13:25:54;98487.47;;;14.07;90.14
72570;BME280;60594;50.204;8.844;2023-03-13T13:28:24;98477.59;;;14.22;92.12
72570;BME280;60594;50.204;8.844;2023-03-13T13:30:54;98472.41;;;14.35;92.01
72570;BME280;60594;50.204;8.844;2023-03-13T13:36:25;98460.19;;;14.68;88.63
72570;BME280;60594;50.204;8.844;2023-03-13T13:38:53;98442.13;;;14.76;87.71
72570;BME280;60594;50.204;8.844;2023-03-13T13:41:26;98439.50;;;14.83;86.91
72570;BME280;60594;50.204;8.844;2023-03-13T13:44:20;98420.78;;;14.89;87.33
72570;BME280;60594;50.204;8.844;2023-03-13T13:46:47;98410.72;;;14.98;87.93
72570;BME280;60594;50.204;8.844;2023-03-13T13:49:17;98410.41;;;15.07;88.22
72570;BME280;60594;50.204;8.844;2023-03-13T13:57:17;98368.06;;;15.64;82.55
72570;BME280;60594;50.204;8.844;2023-03-13T13:59:49;98354.63;;;15.64;83.33
72570;BME280;60594;50.204;8.844;2023-03-13T14:02:25;98349.75;;;15.87;83.68
72570;BME280;60594;50.204;8.844;2023-03-13T14:12:52;98318.78;;;16.04;82.29
72570;BME280;60594;50.204;8.844;2023-03-13T14:15:25;98315.47;;;15.96;83.07
72570;BME280;60594;50.204;8.844;2023-03-13T14:17:58;98314.19;;;15.79;82.50
72570;BME280;60594;50.204;8.844;2023-03-13T14:20:34;98304.66;;;15.76;83.29
72570;BME280;60594;50.204;8.844;2023-03-13T14:23:10;98293.09;;;15.82;82.47
72570;BME280;60594;50.204;8.844;2023-03-13T14:25:46;98296.03;;;15.87;82.07
72570;BME280;60594;50.204;8.844;2023-03-13T14:28:18;98303.88;;;15.89;81.47
72570;BME280;60594;50.204;8.844;2023-03-13T14:30:48;98288.38;;;15.91;81.14
72570;BME280;60594;50.204;8.844;2023-03-13T14:33:16;98292.75;;;15.92;81.57
72570;BME280;60594;50.204;8.844;2023-03-13T14:35:44;98280.31;;;15.91;82.63
72570;BME280;60594;50.204;8.844;2023-03-13T14:38:24;98267.53;;;15.99;82.16